Hlavní strana
METAR-TAF:

METAR-TAF

Letiště :

Marrákeš, Maroko

zeměpisná šířka: 31-37N, zeměpisná délka: 008-02W, výška: 468 m

Aktuální stav počasí

Zpráva byla vytvořena před 28 minutami, v 06:00 UTC
Západojihozápadní vítr 6 kt
Teplota 17°C
Vlhkost vzduchu 88%
Tlak 1011 hPa
Viditelnost: 7000 m

METAR: GMMX 300600Z 24006KT 7000 NSC 17/15 Q1011 NOSIG

Čas: 07:28 (06:28 UTC)

Předpověď počasí

Zpráva byla vytvořena před 1 hodinou a 28 minutami, v 05:00 UTC
Předpověď platná od 30 v 06 UTC do 31 v 12 UTC
Západojihozápadní vítr 6 kt
Viditelnost: 8000 m
Pravděpodobnost 30% :
Dočasný
od 30 v 06 UTC do 30 v 10 UTC
Viditelnost: 4000 m
Oblačno až skoro zataženo ve výšce 1000 ft
kouřmo
Dočasný
od 30 v 15 UTC do 30 v 22 UTC
Severozápadní vítr 16 kt
Polojasno ve výšce 2600 ft

TAF: GMMX 300500Z 3006/3112 24006KT 8000 NSC PROB30 TEMPO 3006/3010 4000 BR BKN010 TEMPO 3015/3022 32016KT SCT026

Stav a předpovědi počasí z více než 4 000 letišť (zprávy METAR a TAF).

Červené a žluté tečky na mapě představují dostupné meteorologické stanice.

Když kurzor umístíte na tečku, zobrazí se název stanice.

Pak kliknutím zobrazíte stav a předpověď počasí.

Chcete-li změnit mapu, kliknutím na zelené tlačítko se znaménkem +mapu přiblížíte, kliknutím na zelené tlačítko se znaménkem – mapu oddálíte a kliknutím na zelené šipky přejdete na sousední mapy.


METAR-TAF: